createdAt,value
2024-02-19T00:01:19.452Z,73.94
2024-02-19T00:03:49.788Z,73.85
2024-02-19T00:06:17.884Z,73.22
2024-02-19T00:08:45.765Z,73.81
2024-02-19T00:11:15.229Z,73.77
2024-02-19T00:13:43.230Z,73.79
2024-02-19T00:16:11.876Z,74.02
2024-02-19T00:18:40.526Z,74.15
2024-02-19T00:21:08.664Z,73.58
2024-02-19T00:23:39.191Z,73.98
2024-02-19T00:26:07.157Z,74.43
2024-02-19T00:28:35.122Z,73.79
2024-02-19T00:31:03.256Z,73.85
2024-02-19T00:33:32.816Z,74.21
2024-02-19T00:36:01.076Z,73.98
2024-02-19T00:38:29.043Z,73.60
2024-02-19T00:40:57.128Z,74.38
2024-02-19T00:43:25.184Z,73.99
2024-02-19T00:45:53.196Z,74.29
2024-02-19T00:48:21.433Z,74.20
2024-02-19T00:50:50.055Z,75.35
2024-02-19T00:53:18.396Z,74.68
2024-02-19T00:55:46.558Z,75.02
2024-02-19T00:58:14.634Z,74.97
2024-02-19T01:00:42.798Z,74.99
2024-02-19T01:03:12.657Z,74.93
2024-02-19T01:05:40.693Z,74.95
2024-02-19T01:08:08.662Z,74.74
2024-02-19T01:10:36.615Z,74.64
2024-02-19T01:13:04.980Z,74.94
2024-02-19T01:15:32.864Z,74.65
2024-02-19T01:18:00.876Z,74.74
2024-02-19T01:20:29.140Z,74.63
2024-02-19T01:22:57.179Z,74.57
2024-02-19T01:25:26.006Z,75.36
2024-02-19T01:27:54.067Z,74.66
2024-02-19T01:30:22.103Z,75.00
2024-02-19T01:32:50.033Z,74.90
2024-02-19T01:35:18.235Z,74.88
2024-02-19T01:37:46.521Z,74.92
2024-02-19T01:40:16.802Z,74.84
2024-02-19T01:42:44.948Z,75.00
2024-02-19T01:45:27.153Z,74.84
2024-02-19T01:47:59.894Z,74.68
2024-02-19T01:50:33.918Z,74.74
2024-02-19T01:53:10.957Z,74.63
2024-02-19T01:55:41.625Z,75.01
2024-02-19T01:58:12.583Z,74.76
2024-02-19T02:00:41.925Z,75.19
2024-02-19T02:03:13.014Z,74.81
2024-02-19T02:05:41.394Z,75.28
2024-02-19T02:08:10.401Z,75.09
2024-02-19T02:10:38.441Z,75.04
2024-02-19T02:13:06.427Z,75.30
2024-02-19T02:15:34.779Z,75.03
2024-02-19T02:18:02.915Z,75.13
2024-02-19T02:20:32.841Z,75.08
2024-02-19T02:23:01.160Z,74.88
2024-02-19T02:25:29.055Z,75.18
2024-02-19T02:27:58.833Z,75.28
2024-02-19T02:30:27.025Z,75.06
2024-02-19T02:32:57.128Z,75.14
2024-02-19T02:35:25.699Z,75.39
2024-02-19T02:37:53.663Z,75.29
2024-02-19T02:40:22.152Z,75.16
2024-02-19T02:42:50.281Z,75.14
2024-02-19T02:45:18.574Z,75.38
2024-02-19T02:47:46.603Z,75.11
2024-02-19T02:50:14.658Z,75.45
2024-02-19T02:52:43.612Z,75.22
2024-02-19T02:55:11.500Z,75.15
2024-02-19T02:57:39.377Z,75.14
2024-02-19T03:00:09.876Z,74.99
2024-02-19T03:02:37.955Z,75.33
2024-02-19T03:05:06.038Z,75.33
2024-02-19T03:07:34.048Z,75.26
2024-02-19T03:10:02.298Z,75.08
2024-02-19T03:12:30.676Z,75.15
2024-02-19T03:14:58.756Z,74.93
2024-02-19T03:17:26.737Z,75.39
2024-02-19T03:19:54.872Z,75.24
2024-02-19T03:22:25.117Z,75.21
2024-02-19T03:24:53.163Z,75.41
2024-02-19T03:27:21.110Z,75.29
2024-02-19T03:29:49.081Z,75.38
2024-02-19T03:32:17.052Z,75.26
2024-02-19T03:34:45.070Z,75.20
2024-02-19T03:37:13.557Z,75.43
2024-02-19T03:39:41.483Z,75.75
2024-02-19T03:42:09.434Z,75.52
2024-02-19T03:44:37.504Z,75.54
2024-02-19T03:47:05.473Z,75.28
2024-02-19T03:49:33.523Z,75.23
2024-02-19T03:52:01.646Z,75.44
2024-02-19T03:54:29.732Z,75.83
2024-02-19T03:56:57.649Z,75.57
2024-02-19T03:59:25.635Z,75.68
2024-02-19T04:01:53.717Z,76.01
2024-02-19T04:04:21.957Z,75.69
2024-02-19T04:06:51.450Z,75.94
2024-02-19T04:09:20.153Z,76.39
2024-02-19T04:11:48.162Z,75.98
2024-02-19T04:14:16.191Z,76.18
2024-02-19T04:16:44.570Z,76.04
2024-02-19T04:19:12.673Z,75.83
2024-02-19T04:21:47.487Z,76.26
2024-02-19T04:24:15.641Z,76.06
2024-02-19T04:26:43.842Z,76.37
2024-02-19T04:29:12.190Z,76.15
2024-02-19T04:31:42.409Z,76.13
2024-02-19T04:34:10.796Z,76.09
2024-02-19T04:36:38.966Z,76.34
2024-02-19T04:39:07.052Z,76.75
2024-02-19T04:41:35.016Z,76.70
2024-02-19T04:44:03.084Z,76.46
2024-02-19T04:46:34.226Z,76.66
2024-02-19T04:49:02.288Z,76.66
2024-02-19T04:51:30.733Z,76.57
2024-02-19T04:53:58.753Z,76.83
2024-02-19T04:56:26.836Z,76.41
2024-02-19T04:58:56.386Z,76.55
2024-02-19T05:01:24.423Z,76.76
2024-02-19T05:03:54.977Z,76.59
2024-02-19T05:06:23.133Z,76.89
2024-02-19T05:08:51.482Z,76.85
2024-02-19T05:11:19.443Z,76.75
2024-02-19T05:13:49.450Z,77.14
2024-02-19T05:16:17.499Z,76.91
2024-02-19T05:18:46.534Z,76.71
2024-02-19T05:21:15.518Z,76.92
2024-02-19T05:23:43.468Z,76.93
2024-02-19T05:26:11.426Z,77.29
2024-02-19T05:28:39.398Z,77.04
2024-02-19T05:31:07.468Z,77.16
2024-02-19T05:33:35.882Z,77.35
2024-02-19T05:36:03.918Z,77.44
2024-02-19T05:38:31.896Z,77.23
2024-02-19T05:41:01.185Z,77.27
2024-02-19T05:43:29.195Z,77.49
2024-02-19T05:45:57.279Z,77.03
2024-02-19T05:48:25.906Z,77.17
2024-02-19T05:50:53.913Z,77.28
2024-02-19T05:53:21.878Z,77.27
2024-02-19T05:55:50.052Z,77.37
2024-02-19T05:58:18.165Z,77.31
2024-02-19T06:00:46.415Z,77.44
2024-02-19T06:03:14.569Z,77.24
2024-02-19T06:05:42.583Z,77.93
2024-02-19T06:08:10.575Z,77.62
2024-02-19T06:10:38.484Z,77.59
2024-02-19T06:13:06.867Z,77.48
2024-02-19T06:15:34.890Z,77.56
2024-02-19T06:18:03.130Z,77.60
2024-02-19T06:20:31.534Z,77.54
2024-02-19T06:22:59.522Z,77.27
2024-02-19T06:25:27.522Z,77.38
2024-02-19T06:27:55.597Z,77.54
2024-02-19T06:30:23.651Z,77.25
2024-02-19T06:32:51.711Z,77.50
2024-02-19T06:35:19.841Z,77.56
2024-02-19T06:37:49.805Z,77.49
2024-02-19T06:40:17.853Z,77.55
2024-02-19T06:42:45.880Z,77.24
2024-02-19T06:45:13.883Z,77.83
2024-02-19T06:47:44.755Z,77.45
2024-02-19T06:50:12.668Z,77.71
2024-02-19T06:52:44.734Z,77.29
2024-02-19T06:55:16.937Z,77.28
2024-02-19T06:57:45.628Z,77.52
2024-02-19T07:00:14.385Z,77.71
2024-02-19T07:02:42.459Z,77.52
2024-02-19T07:05:10.627Z,77.50
2024-02-19T07:07:39.245Z,77.52
2024-02-19T07:10:08.134Z,77.41
2024-02-19T07:12:36.061Z,77.39
2024-02-19T07:15:04.563Z,77.39
2024-02-19T07:17:32.571Z,77.47
2024-02-19T07:20:00.706Z,77.34
2024-02-19T07:22:29.031Z,77.16
2024-02-19T07:25:06.020Z,77.32
2024-02-19T07:27:42.366Z,77.17
2024-02-19T07:30:12.208Z,77.27
2024-02-19T07:32:40.342Z,77.08
2024-02-19T07:35:08.707Z,77.03
2024-02-19T07:37:37.184Z,76.97
2024-02-19T07:40:06.974Z,77.10
2024-02-19T07:42:34.966Z,76.87
2024-02-19T07:45:03.417Z,76.86
2024-02-19T07:47:31.337Z,76.52
2024-02-19T07:49:59.363Z,76.70
2024-02-19T07:52:27.417Z,76.71
2024-02-19T07:54:55.671Z,76.53
2024-02-19T07:57:23.595Z,76.31
2024-02-19T07:59:51.481Z,76.51
2024-02-19T08:02:19.469Z,76.52
2024-02-19T08:04:47.607Z,76.32
2024-02-19T08:07:15.819Z,76.10
2024-02-19T08:09:44.883Z,76.32
2024-02-19T08:12:14.444Z,76.50
2024-02-19T08:14:42.414Z,76.26
2024-02-19T08:17:10.480Z,75.76
2024-02-19T08:19:38.420Z,75.75
2024-02-19T08:22:06.568Z,75.95
2024-02-19T08:24:34.609Z,75.81
2024-02-19T08:29:55.736Z,75.86
2024-02-19T08:32:23.633Z,75.84
2024-02-19T08:34:51.623Z,75.86
2024-02-19T08:37:20.088Z,75.51
2024-02-19T08:39:48.999Z,75.33
2024-02-19T08:42:16.952Z,75.63
2024-02-19T08:44:44.862Z,75.35
2024-02-19T08:47:12.971Z,75.51
2024-02-19T08:49:42.000Z,75.29
2024-02-19T08:52:10.365Z,75.36
2024-02-19T08:54:38.367Z,75.52
2024-02-19T08:57:06.488Z,75.54
2024-02-19T08:59:35.087Z,75.38
2024-02-19T09:02:03.290Z,75.51
2024-02-19T09:04:31.446Z,75.70
2024-02-19T09:06:59.762Z,75.62
2024-02-19T09:09:27.685Z,75.50
2024-02-19T09:11:55.589Z,75.66
2024-02-19T09:14:23.505Z,75.31
2024-02-19T09:16:51.416Z,75.61
2024-02-19T09:19:19.782Z,75.52
2024-02-19T09:21:47.710Z,75.75
2024-02-19T09:24:15.687Z,75.88
2024-02-19T09:26:43.840Z,75.83
2024-02-19T09:29:11.695Z,76.21
2024-02-19T09:31:39.565Z,76.14
2024-02-19T09:34:07.509Z,76.30
2024-02-19T09:36:35.671Z,76.77
2024-02-19T09:39:03.951Z,76.69
2024-02-19T09:41:34.469Z,76.43
2024-02-19T09:44:02.743Z,76.59
2024-02-19T09:46:31.188Z,76.71
2024-02-19T09:49:02.143Z,77.37
2024-02-19T09:51:37.141Z,76.99
2024-02-19T09:54:10.809Z,77.02
2024-02-19T09:56:39.482Z,77.72
2024-02-19T09:59:08.640Z,77.12
2024-02-19T10:01:36.625Z,77.78
2024-02-19T10:04:07.709Z,78.51
2024-02-19T10:06:38.227Z,78.81
2024-02-19T10:09:08.910Z,79.34
2024-02-19T10:11:40.529Z,78.92
2024-02-19T10:14:10.222Z,78.25
2024-02-19T10:16:38.309Z,79.56
2024-02-19T10:19:07.408Z,79.74
2024-02-19T10:21:36.093Z,79.25
2024-02-19T10:24:04.891Z,79.12
2024-02-19T10:26:33.037Z,79.80
2024-02-19T10:29:01.229Z,79.51
2024-02-19T10:31:29.766Z,79.33
2024-02-19T10:33:58.158Z,80.31
2024-02-19T10:36:26.658Z,79.75
2024-02-19T10:38:54.926Z,80.76
2024-02-19T10:41:25.149Z,80.47
2024-02-19T10:43:55.626Z,80.76
2024-02-19T10:46:25.648Z,80.98
2024-02-19T10:48:55.990Z,80.68
2024-02-19T10:51:25.901Z,81.00
2024-02-19T10:54:05.750Z,80.94
2024-02-19T10:56:43.567Z,80.94
2024-02-19T10:59:12.555Z,81.63
2024-02-19T11:01:46.278Z,81.57
2024-02-19T11:04:17.803Z,81.85
2024-02-19T11:06:52.141Z,81.46
2024-02-19T11:09:28.608Z,81.55
2024-02-19T11:12:00.419Z,82.52
2024-02-19T11:14:34.546Z,82.15
2024-02-19T11:17:03.996Z,82.23
2024-02-19T11:19:41.622Z,81.89
2024-02-19T11:22:15.284Z,81.96
2024-02-19T11:24:43.414Z,82.69
2024-02-19T11:27:13.999Z,82.77
2024-02-19T11:29:47.625Z,82.23
2024-02-19T11:32:23.443Z,82.26
2024-02-19T11:34:52.856Z,83.49
2024-02-19T11:37:21.869Z,83.57
2024-02-19T11:39:50.389Z,82.95
2024-02-19T11:42:19.753Z,83.24
2024-02-19T11:44:48.776Z,83.24
2024-02-19T11:47:17.913Z,82.79
2024-02-19T11:49:47.442Z,83.89
2024-02-19T11:52:16.285Z,83.39
2024-02-19T11:54:44.960Z,83.25
2024-02-19T11:57:15.279Z,83.58
2024-02-19T11:59:46.839Z,83.67
2024-02-19T12:02:15.034Z,83.55
2024-02-19T12:04:43.149Z,83.33
2024-02-19T12:07:11.930Z,83.59
2024-02-19T12:09:41.444Z,83.91
2024-02-19T12:12:11.373Z,84.33
2024-02-19T12:14:40.027Z,84.44
2024-02-19T12:17:10.905Z,84.81
2024-02-19T12:19:38.925Z,84.69
2024-02-19T12:22:08.038Z,84.74
2024-02-19T12:24:36.222Z,84.68
2024-02-19T12:27:04.742Z,84.31
2024-02-19T12:29:32.703Z,84.74
2024-02-19T12:32:00.928Z,84.69
2024-02-19T12:34:29.101Z,84.01
2024-02-19T12:36:59.518Z,84.65
2024-02-19T12:39:27.852Z,84.36
2024-02-19T12:41:56.582Z,84.79
2024-02-19T12:44:25.373Z,85.16
2024-02-19T12:46:54.300Z,85.01
2024-02-19T12:49:22.667Z,84.79
2024-02-19T12:51:52.797Z,85.24
2024-02-19T12:54:22.193Z,85.36
2024-02-19T12:56:50.315Z,85.38
2024-02-19T12:59:18.373Z,85.20
2024-02-19T13:01:46.501Z,86.25
2024-02-19T13:04:14.470Z,84.98
2024-02-19T13:06:42.502Z,85.93
2024-02-19T13:09:12.117Z,85.71
2024-02-19T13:11:40.353Z,85.95
2024-02-19T13:14:08.548Z,85.57
2024-02-19T13:16:36.736Z,85.25
2024-02-19T13:19:04.853Z,85.87
2024-02-19T13:21:32.762Z,85.80
2024-02-19T13:24:00.798Z,86.18
2024-02-19T13:26:28.999Z,85.70
2024-02-19T13:28:56.996Z,86.34
2024-02-19T13:31:25.462Z,86.37
2024-02-19T13:33:53.492Z,86.39
2024-02-19T13:36:21.563Z,86.39
2024-02-19T13:38:49.541Z,87.00
2024-02-19T13:41:17.638Z,87.19
2024-02-19T13:43:46.155Z,87.04
2024-02-19T13:46:14.960Z,87.11
2024-02-19T13:48:43.691Z,86.76
2024-02-19T13:51:11.856Z,86.75
2024-02-19T13:53:40.089Z,86.68
2024-02-19T13:56:08.075Z,87.32
2024-02-19T13:58:36.187Z,87.06
2024-02-19T14:01:06.250Z,87.58
2024-02-19T14:03:34.670Z,86.99
2024-02-19T14:06:03.294Z,86.83
2024-02-19T14:08:31.529Z,87.53
2024-02-19T14:11:00.743Z,87.41
2024-02-19T14:13:28.851Z,87.84
2024-02-19T14:15:57.685Z,88.14
2024-02-19T14:18:28.716Z,87.64
2024-02-19T14:20:57.992Z,88.78
2024-02-19T14:23:26.289Z,88.58
2024-02-19T14:25:54.685Z,88.61
2024-02-19T14:28:22.853Z,88.41
2024-02-19T14:30:50.899Z,88.70
2024-02-19T14:33:19.421Z,88.32
2024-02-19T14:35:47.668Z,89.12
2024-02-19T14:38:16.569Z,88.75
2024-02-19T14:40:45.000Z,89.24
2024-02-19T14:43:15.573Z,89.01
2024-02-19T14:45:43.801Z,88.78
2024-02-19T14:48:12.061Z,89.25
2024-02-19T14:50:40.294Z,89.62
2024-02-19T14:53:09.185Z,89.29
2024-02-19T14:55:37.265Z,89.67
2024-02-19T14:58:06.761Z,90.02
2024-02-19T15:00:36.601Z,90.63
2024-02-19T15:03:11.396Z,90.94
2024-02-19T15:05:41.345Z,90.22
2024-02-19T15:08:09.734Z,90.53
2024-02-19T15:10:37.783Z,90.31
2024-02-19T15:13:05.931Z,90.06
2024-02-19T15:15:34.068Z,90.61
2024-02-19T15:18:05.104Z,90.49
2024-02-19T15:20:33.253Z,90.64
2024-02-19T15:23:03.605Z,90.98
2024-02-19T15:25:31.598Z,91.61
2024-02-19T15:27:59.722Z,91.73
2024-02-19T15:30:28.032Z,92.12
2024-02-19T15:32:56.108Z,92.30
2024-02-19T15:35:26.399Z,92.30
2024-02-19T15:37:54.394Z,92.29
2024-02-19T15:40:24.328Z,92.54
2024-02-19T15:42:52.557Z,92.37
2024-02-19T15:45:20.721Z,92.38
2024-02-19T15:47:49.161Z,92.62
2024-02-19T15:50:17.593Z,92.64
2024-02-19T15:52:54.965Z,92.68
2024-02-19T15:55:26.618Z,92.63
2024-02-19T15:57:54.579Z,93.23
2024-02-19T16:00:22.685Z,93.95
2024-02-19T16:02:50.562Z,93.82
2024-02-19T16:05:19.040Z,93.86
2024-02-19T16:07:46.980Z,94.41
2024-02-19T16:10:15.167Z,94.56
2024-02-19T16:12:43.053Z,94.92
2024-02-19T16:15:11.206Z,94.91
2024-02-19T16:17:39.082Z,95.38
2024-02-19T16:20:09.010Z,95.80
2024-02-19T16:22:37.488Z,95.63
2024-02-19T16:25:08.230Z,95.73
2024-02-19T16:27:37.178Z,95.90
2024-02-19T16:30:08.229Z,96.38
2024-02-19T16:32:38.587Z,96.61
2024-02-19T16:35:07.409Z,96.68
2024-02-19T16:37:36.565Z,96.73
2024-02-19T16:40:06.014Z,96.90
2024-02-19T16:42:40.298Z,96.61
2024-02-19T16:45:10.097Z,97.17
2024-02-19T16:47:40.570Z,97.68
2024-02-19T16:50:09.089Z,97.74
2024-02-19T16:52:37.797Z,97.46
2024-02-19T16:55:07.804Z,97.54
2024-02-19T16:57:38.166Z,97.43
2024-02-19T17:00:09.431Z,97.53
2024-02-19T17:02:37.488Z,97.31
2024-02-19T17:05:06.463Z,97.50
2024-02-19T17:07:34.743Z,98.01
2024-02-19T17:10:07.637Z,97.86
2024-02-19T17:12:35.604Z,97.86
2024-02-19T17:15:04.060Z,98.39
2024-02-19T17:17:32.343Z,98.17
2024-02-19T17:20:01.209Z,98.42
2024-02-19T17:22:29.761Z,98.85
2024-02-19T17:24:57.772Z,98.48
2024-02-19T17:27:25.960Z,98.92
2024-02-19T17:29:53.788Z,99.21
2024-02-19T17:32:23.018Z,98.99
2024-02-19T17:34:52.888Z,98.99
2024-02-19T17:37:21.918Z,98.93
2024-02-19T17:39:50.794Z,99.36
2024-02-19T17:42:20.744Z,99.12
2024-02-19T17:44:48.645Z,99.41
2024-02-19T17:47:16.587Z,99.38
2024-02-19T17:49:44.589Z,99.62
2024-02-19T17:52:14.087Z,99.63
2024-02-19T17:54:42.464Z,99.97
2024-02-19T17:57:16.045Z,99.93
2024-02-19T17:59:44.565Z,100.00
2024-02-19T18:02:14.096Z,100.00
2024-02-19T18:04:47.040Z,100.00
2024-02-19T18:07:15.126Z,100.00
2024-02-19T18:09:43.039Z,100.00
2024-02-19T18:12:13.734Z,100.00
2024-02-19T18:14:41.840Z,100.00
2024-02-19T18:17:10.122Z,100.00
2024-02-19T18:19:38.171Z,100.00
2024-02-19T18:22:08.547Z,100.00
2024-02-19T18:24:37.217Z,100.00
2024-02-19T18:27:08.275Z,100.00
2024-02-19T18:29:36.985Z,100.00
2024-02-19T18:32:07.910Z,100.00
2024-02-19T18:34:37.036Z,100.00
2024-02-19T18:37:06.216Z,100.00
2024-02-19T18:39:34.323Z,100.00
2024-02-19T18:42:02.606Z,100.00
2024-02-19T18:44:30.575Z,100.00
2024-02-19T18:47:01.262Z,100.00
2024-02-19T18:49:33.434Z,100.00
2024-02-19T18:52:03.159Z,100.00
2024-02-19T18:54:32.848Z,100.00
2024-02-19T18:57:02.521Z,100.00
2024-02-19T18:59:32.278Z,100.00
2024-02-19T19:02:05.339Z,100.00
2024-02-19T19:04:35.547Z,100.00
2024-02-19T19:07:03.756Z,100.00
2024-02-19T19:09:32.602Z,100.00
2024-02-19T19:12:05.271Z,100.00
2024-02-19T19:14:35.390Z,100.00
2024-02-19T19:17:04.141Z,99.98
2024-02-19T19:19:32.354Z,99.98
2024-02-19T19:22:00.621Z,100.00
2024-02-19T19:24:28.616Z,99.96
2024-02-19T19:26:56.844Z,99.78
2024-02-19T19:29:25.230Z,99.69
2024-02-19T19:31:53.712Z,98.93
2024-02-19T19:34:24.182Z,98.48
2024-02-19T19:36:52.175Z,98.38
2024-02-19T19:39:20.104Z,98.19
2024-02-19T19:41:48.134Z,98.21
2024-02-19T19:44:18.595Z,98.37
2024-02-19T19:46:46.629Z,98.39
2024-02-19T19:49:18.385Z,98.25
2024-02-19T19:51:46.816Z,98.38
2024-02-19T19:54:15.071Z,98.48
2024-02-19T19:56:43.372Z,98.53
2024-02-19T19:59:11.784Z,98.54
2024-02-19T20:01:39.914Z,98.64
2024-02-19T20:04:08.187Z,98.65
2024-02-19T20:06:36.965Z,98.69
2024-02-19T20:09:05.097Z,98.73
2024-02-19T20:11:33.211Z,98.51
2024-02-19T20:14:01.874Z,98.55
2024-02-19T20:16:29.998Z,98.80
2024-02-19T20:18:58.484Z,98.58
2024-02-19T20:21:27.074Z,98.68
2024-02-19T20:23:55.199Z,98.61
2024-02-19T20:26:28.850Z,98.93
2024-02-19T20:28:56.902Z,98.78
2024-02-19T20:31:25.050Z,98.96
2024-02-19T20:33:54.002Z,98.99
2024-02-19T20:36:22.036Z,99.13
2024-02-19T20:38:50.378Z,98.85
2024-02-19T20:41:18.521Z,98.93
2024-02-19T20:43:46.525Z,98.99
2024-02-19T20:46:14.481Z,99.16
2024-02-19T20:48:42.409Z,99.43
2024-02-19T20:51:10.390Z,99.13
2024-02-19T20:53:39.063Z,99.32
2024-02-19T20:56:06.997Z,99.67
2024-02-19T20:58:35.018Z,99.51
2024-02-19T21:01:03.263Z,99.76
2024-02-19T21:03:40.029Z,99.84
2024-02-19T21:06:11.444Z,99.99
2024-02-19T21:08:41.935Z,99.98
2024-02-19T21:11:13.394Z,99.80
2024-02-19T21:13:41.504Z,100.00
2024-02-19T21:16:11.317Z,100.00
2024-02-19T21:18:46.959Z,100.00
2024-02-19T21:21:29.653Z,100.00
2024-02-19T21:24:03.992Z,100.00
2024-02-19T21:26:32.763Z,100.00
2024-02-19T21:29:00.804Z,100.00
2024-02-19T21:31:28.755Z,100.00
2024-02-19T21:33:57.627Z,100.00
2024-02-19T21:36:25.928Z,100.00
2024-02-19T21:38:56.048Z,100.00
2024-02-19T21:41:24.371Z,99.95
2024-02-19T21:43:52.243Z,99.94
2024-02-19T21:46:20.384Z,99.98
2024-02-19T21:48:48.663Z,99.70
2024-02-19T21:51:16.649Z,99.40
2024-02-19T21:53:44.579Z,99.19
2024-02-19T21:56:14.595Z,99.08
2024-02-19T21:58:42.564Z,99.08
2024-02-19T22:01:10.591Z,98.78
2024-02-19T22:03:38.852Z,98.72
2024-02-19T22:06:08.328Z,98.46
2024-02-19T22:08:36.484Z,98.64
2024-02-19T22:11:04.678Z,98.25
2024-02-19T22:13:32.744Z,98.53
2024-02-19T22:16:00.880Z,98.70
2024-02-19T22:18:29.039Z,98.52
2024-02-19T22:20:57.468Z,98.34
2024-02-19T22:23:25.425Z,98.76
2024-02-19T22:25:54.109Z,98.73
2024-02-19T22:28:22.077Z,98.53
2024-02-19T22:30:50.104Z,98.44
2024-02-19T22:33:18.538Z,98.39
2024-02-19T22:35:47.735Z,98.34
2024-02-19T22:38:15.700Z,98.57
2024-02-19T22:40:43.845Z,98.23
2024-02-19T22:43:12.504Z,97.60
2024-02-19T22:45:41.597Z,97.16
2024-02-19T22:48:10.385Z,97.34
2024-02-19T22:50:39.352Z,97.40
2024-02-19T22:53:08.142Z,97.15
2024-02-19T22:55:36.835Z,97.39
2024-02-19T22:58:05.512Z,97.18
2024-02-19T23:00:37.039Z,97.35
2024-02-19T23:03:06.504Z,97.50
2024-02-19T23:05:35.181Z,97.53
2024-02-19T23:08:03.369Z,97.32
2024-02-19T23:10:31.503Z,97.60
2024-02-19T23:12:59.839Z,97.75
2024-02-19T23:15:27.952Z,97.34
2024-02-19T23:17:56.253Z,98.25
2024-02-19T23:20:24.865Z,98.29
2024-02-19T23:22:53.021Z,98.87
2024-02-19T23:25:21.338Z,99.10
2024-02-19T23:27:49.593Z,99.06
2024-02-19T23:30:18.996Z,99.61
2024-02-19T23:32:47.129Z,99.51
2024-02-19T23:35:15.727Z,99.43
2024-02-19T23:37:43.637Z,99.84
2024-02-19T23:40:18.720Z,99.67
2024-02-19T23:42:47.950Z,99.91
2024-02-19T23:45:15.972Z,99.87
2024-02-19T23:47:44.468Z,100.00
2024-02-19T23:50:12.699Z,100.00
2024-02-19T23:52:41.402Z,100.00
2024-02-19T23:55:11.137Z,100.00
2024-02-19T23:57:39.629Z,100.00
